sensor_id;sensor_type;location;lat;lon;timestamp;temperature;humidity
53152;DHT22;39234;53.158;6.322;2022-07-21T00:00:22;18.90;99.90
53152;DHT22;39234;53.158;6.322;2022-07-21T00:02:48;19.50;99.90
53152;DHT22;39234;53.158;6.322;2022-07-21T00:05:14;19.10;99.90
53152;DHT22;39234;53.158;6.322;2022-07-21T00:07:42;19.10;99.90
53152;DHT22;39234;53.158;6.322;2022-07-21T00:10:09;18.90;99.90
53152;DHT22;39234;53.158;6.322;2022-07-21T00:12:34;19.00;99.90
53152;DHT22;39234;53.158;6.322;2022-07-21T00:15:02;18.80;99.90
53152;DHT22;39234;53.158;6.322;2022-07-21T00:17:27;18.80;99.90
53152;DHT22;39234;53.158;6.322;2022-07-21T00:19:53;20.00;99.90
53152;DHT22;39234;53.158;6.322;2022-07-21T00:22:20;19.60;99.90
53152;DHT22;39234;53.158;6.322;2022-07-21T00:24:49;20.90;99.90
53152;DHT22;39234;53.158;6.322;2022-07-21T00:27:15;19.10;99.90
53152;DHT22;39234;53.158;6.322;2022-07-21T00:29:42;18.60;99.90
53152;DHT22;39234;53.158;6.322;2022-07-21T00:32:08;18.90;99.90
53152;DHT22;39234;53.158;6.322;2022-07-21T00:34:41;18.80;99.90
53152;DHT22;39234;53.158;6.322;2022-07-21T00:37:08;18.90;99.90
53152;DHT22;39234;53.158;6.322;2022-07-21T00:39:34;18.70;99.90
53152;DHT22;39234;53.158;6.322;2022-07-21T00:42:03;19.70;99.90
53152;DHT22;39234;53.158;6.322;2022-07-21T00:44:37;18.70;99.90
53152;DHT22;39234;53.158;6.322;2022-07-21T00:47:05;18.60;99.90
53152;DHT22;39234;53.158;6.322;2022-07-21T00:49:33;18.80;99.90
53152;DHT22;39234;53.158;6.322;2022-07-21T00:52:05;18.80;99.90
53152;DHT22;39234;53.158;6.322;2022-07-21T00:54:36;18.80;99.90
53152;DHT22;39234;53.158;6.322;2022-07-21T01:01:02;18.90;99.90
53152;DHT22;39234;53.158;6.322;2022-07-21T01:06:46;18.90;99.90
53152;DHT22;39234;53.158;6.322;2022-07-21T01:09:45;18.70;99.90
53152;DHT22;39234;53.158;6.322;2022-07-21T01:12:21;18.80;99.90
53152;DHT22;39234;53.158;6.322;2022-07-21T01:15:24;18.60;99.90
53152;DHT22;39234;53.158;6.322;2022-07-21T01:18:46;19.20;99.90
53152;DHT22;39234;53.158;6.322;2022-07-21T01:21:44;20.70;99.90
53152;DHT22;39234;53.158;6.322;2022-07-21T01:25:04;17.90;99.90
53152;DHT22;39234;53.158;6.322;2022-07-21T01:27:51;19.20;99.90
53152;DHT22;39234;53.158;6.322;2022-07-21T01:30:23;20.50;99.90
53152;DHT22;39234;53.158;6.322;2022-07-21T01:33:31;18.40;99.90
53152;DHT22;39234;53.158;6.322;2022-07-21T01:36:46;19.50;99.90
53152;DHT22;39234;53.158;6.322;2022-07-21T01:39:24;17.30;99.90
53152;DHT22;39234;53.158;6.322;2022-07-21T01:42:09;18.70;99.90
53152;DHT22;39234;53.158;6.322;2022-07-21T01:44:35;20.70;99.90
53152;DHT22;39234;53.158;6.322;2022-07-21T01:47:02;18.50;99.90
53152;DHT22;39234;53.158;6.322;2022-07-21T01:49:34;19.40;99.90
53152;DHT22;39234;53.158;6.322;2022-07-21T01:52:05;18.20;99.90
53152;DHT22;39234;53.158;6.322;2022-07-21T01:54:33;18.30;99.90
53152;DHT22;39234;53.158;6.322;2022-07-21T01:57:02;17.90;99.90
53152;DHT22;39234;53.158;6.322;2022-07-21T01:59:28;18.80;99.90
53152;DHT22;39234;53.158;6.322;2022-07-21T02:04:41;18.50;99.90
53152;DHT22;39234;53.158;6.322;2022-07-21T02:07:20;19.00;99.90
53152;DHT22;39234;53.158;6.322;2022-07-21T02:28:38;19.50;99.90
53152;DHT22;39234;53.158;6.322;2022-07-21T02:31:03;18.20;99.90
53152;DHT22;39234;53.158;6.322;2022-07-21T02:33:29;18.10;99.90
53152;DHT22;39234;53.158;6.322;2022-07-21T02:35:55;19.30;99.90
53152;DHT22;39234;53.158;6.322;2022-07-21T02:38:21;18.40;99.90
53152;DHT22;39234;53.158;6.322;2022-07-21T02:40:46;19.80;99.90
53152;DHT22;39234;53.158;6.322;2022-07-21T02:43:12;18.10;99.90
53152;DHT22;39234;53.158;6.322;2022-07-21T02:45:38;18.20;99.90
53152;DHT22;39234;53.158;6.322;2022-07-21T02:48:10;18.20;99.90
53152;DHT22;39234;53.158;6.322;2022-07-21T02:50:38;18.70;99.90
53152;DHT22;39234;53.158;6.322;2022-07-21T02:53:11;18.70;99.90
53152;DHT22;39234;53.158;6.322;2022-07-21T02:55:37;17.90;99.90
53152;DHT22;39234;53.158;6.322;2022-07-21T02:58:26;18.30;99.90
53152;DHT22;39234;53.158;6.322;2022-07-21T03:01:04;18.40;99.90
53152;DHT22;39234;53.158;6.322;2022-07-21T03:03:33;18.30;99.90
53152;DHT22;39234;53.158;6.322;2022-07-21T03:05:59;19.30;99.90
53152;DHT22;39234;53.158;6.322;2022-07-21T03:08:26;18.20;99.90
53152;DHT22;39234;53.158;6.322;2022-07-21T03:10:55;18.20;99.90
53152;DHT22;39234;53.158;6.322;2022-07-21T03:13:20;18.80;99.90
53152;DHT22;39234;53.158;6.322;2022-07-21T03:15:46;20.30;99.90
53152;DHT22;39234;53.158;6.322;2022-07-21T03:18:14;18.30;99.90
53152;DHT22;39234;53.158;6.322;2022-07-21T03:20:42;18.20;99.90
53152;DHT22;39234;53.158;6.322;2022-07-21T03:23:08;18.10;99.90
53152;DHT22;39234;53.158;6.322;2022-07-21T03:25:35;18.30;99.90
53152;DHT22;39234;53.158;6.322;2022-07-21T03:28:02;18.60;99.90
53152;DHT22;39234;53.158;6.322;2022-07-21T03:30:28;18.30;99.90
53152;DHT22;39234;53.158;6.322;2022-07-21T03:32:54;18.80;99.90
53152;DHT22;39234;53.158;6.322;2022-07-21T03:35:20;18.30;99.90
53152;DHT22;39234;53.158;6.322;2022-07-21T03:37:52;18.30;99.90
53152;DHT22;39234;53.158;6.322;2022-07-21T03:40:21;18.40;99.90
53152;DHT22;39234;53.158;6.322;2022-07-21T03:42:50;18.90;99.90
53152;DHT22;39234;53.158;6.322;2022-07-21T03:45:16;18.40;99.90
53152;DHT22;39234;53.158;6.322;2022-07-21T03:47:42;19.80;99.90
53152;DHT22;39234;53.158;6.322;2022-07-21T03:50:08;19.60;99.90
53152;DHT22;39234;53.158;6.322;2022-07-21T03:52:34;18.40;99.90
53152;DHT22;39234;53.158;6.322;2022-07-21T03:55:00;18.20;99.90
53152;DHT22;39234;53.158;6.322;2022-07-21T03:57:44;19.00;99.90
53152;DHT22;39234;53.158;6.322;2022-07-21T04:00:15;18.20;99.90
53152;DHT22;39234;53.158;6.322;2022-07-21T04:02:41;18.10;99.90
53152;DHT22;39234;53.158;6.322;2022-07-21T04:05:12;18.80;99.90
53152;DHT22;39234;53.158;6.322;2022-07-21T04:07:43;19.40;99.90
53152;DHT22;39234;53.158;6.322;2022-07-21T04:10:11;20.20;99.90
53152;DHT22;39234;53.158;6.322;2022-07-21T04:12:38;18.20;99.90
53152;DHT22;39234;53.158;6.322;2022-07-21T04:15:06;19.30;99.90
53152;DHT22;39234;53.158;6.322;2022-07-21T04:17:32;18.30;99.90
53152;DHT22;39234;53.158;6.322;2022-07-21T04:19:58;18.40;99.90
53152;DHT22;39234;53.158;6.322;2022-07-21T04:22:24;18.20;99.90
53152;DHT22;39234;53.158;6.322;2022-07-21T04:24:50;19.60;99.90
53152;DHT22;39234;53.158;6.322;2022-07-21T04:27:16;18.30;99.90
53152;DHT22;39234;53.158;6.322;2022-07-21T04:29:41;18.40;99.90
53152;DHT22;39234;53.158;6.322;2022-07-21T04:32:07;18.40;99.90
53152;DHT22;39234;53.158;6.322;2022-07-21T04:34:33;18.20;99.90
53152;DHT22;39234;53.158;6.322;2022-07-21T04:36:59;20.00;99.90
53152;DHT22;39234;53.158;6.322;2022-07-21T04:39:24;16.30;99.90
53152;DHT22;39234;53.158;6.322;2022-07-21T04:41:52;20.00;99.90
53152;DHT22;39234;53.158;6.322;2022-07-21T04:44:18;19.00;99.90
53152;DHT22;39234;53.158;6.322;2022-07-21T04:46:43;19.10;99.90
53152;DHT22;39234;53.158;6.322;2022-07-21T04:49:09;19.40;99.90
53152;DHT22;39234;53.158;6.322;2022-07-21T04:51:36;18.60;99.90
53152;DHT22;39234;53.158;6.322;2022-07-21T04:54:02;18.70;99.90
53152;DHT22;39234;53.158;6.322;2022-07-21T04:56:28;18.50;99.90
53152;DHT22;39234;53.158;6.322;2022-07-21T04:58:54;18.40;99.90
53152;DHT22;39234;53.158;6.322;2022-07-21T05:01:19;18.60;99.90
53152;DHT22;39234;53.158;6.322;2022-07-21T05:03:45;18.40;99.90
53152;DHT22;39234;53.158;6.322;2022-07-21T05:06:11;18.50;99.90
53152;DHT22;39234;53.158;6.322;2022-07-21T05:08:39;18.40;99.90
53152;DHT22;39234;53.158;6.322;2022-07-21T05:11:05;18.70;99.90
53152;DHT22;39234;53.158;6.322;2022-07-21T05:13:30;18.60;99.90
53152;DHT22;39234;53.158;6.322;2022-07-21T05:15:58;19.50;99.90
53152;DHT22;39234;53.158;6.322;2022-07-21T05:18:24;18.60;99.90
53152;DHT22;39234;53.158;6.322;2022-07-21T05:20:50;18.90;99.90
53152;DHT22;39234;53.158;6.322;2022-07-21T05:23:15;18.50;99.90
53152;DHT22;39234;53.158;6.322;2022-07-21T05:25:43;18.50;99.90
53152;DHT22;39234;53.158;6.322;2022-07-21T05:28:09;18.40;99.90
53152;DHT22;39234;53.158;6.322;2022-07-21T05:30:35;18.40;99.90
53152;DHT22;39234;53.158;6.322;2022-07-21T05:33:02;19.20;99.90
53152;DHT22;39234;53.158;6.322;2022-07-21T05:35:28;18.50;99.90
53152;DHT22;39234;53.158;6.322;2022-07-21T05:37:54;18.10;99.90
53152;DHT22;39234;53.158;6.322;2022-07-21T05:40:20;18.60;99.90
53152;DHT22;39234;53.158;6.322;2022-07-21T05:42:45;18.20;99.90
53152;DHT22;39234;53.158;6.322;2022-07-21T05:45:12;18.30;99.90
53152;DHT22;39234;53.158;6.322;2022-07-21T05:47:38;18.80;99.90
53152;DHT22;39234;53.158;6.322;2022-07-21T05:50:06;18.10;99.90
53152;DHT22;39234;53.158;6.322;2022-07-21T05:52:32;18.10;99.90
53152;DHT22;39234;53.158;6.322;2022-07-21T05:54:58;18.50;99.90
53152;DHT22;39234;53.158;6.322;2022-07-21T05:57:25;18.10;99.90
53152;DHT22;39234;53.158;6.322;2022-07-21T05:59:53;18.20;99.90
53152;DHT22;39234;53.158;6.322;2022-07-21T06:02:18;18.50;99.90
53152;DHT22;39234;53.158;6.322;2022-07-21T06:04:44;18.10;99.90
53152;DHT22;39234;53.158;6.322;2022-07-21T06:07:11;18.50;99.90
53152;DHT22;39234;53.158;6.322;2022-07-21T06:09:37;20.00;99.90
53152;DHT22;39234;53.158;6.322;2022-07-21T06:12:03;20.60;99.90
53152;DHT22;39234;53.158;6.322;2022-07-21T06:14:29;18.50;99.90
53152;DHT22;39234;53.158;6.322;2022-07-21T06:16:54;18.60;99.90
53152;DHT22;39234;53.158;6.322;2022-07-21T06:19:20;18.50;99.90
53152;DHT22;39234;53.158;6.322;2022-07-21T06:21:46;18.50;99.90
53152;DHT22;39234;53.158;6.322;2022-07-21T06:24:12;18.50;99.90
53152;DHT22;39234;53.158;6.322;2022-07-21T06:26:37;18.50;99.90
53152;DHT22;39234;53.158;6.322;2022-07-21T06:29:04;20.70;99.90
53152;DHT22;39234;53.158;6.322;2022-07-21T06:31:30;19.00;99.90
53152;DHT22;39234;53.158;6.322;2022-07-21T06:33:55;19.50;99.90
53152;DHT22;39234;53.158;6.322;2022-07-21T06:36:21;18.70;99.90
53152;DHT22;39234;53.158;6.322;2022-07-21T06:38:48;20.70;99.90
53152;DHT22;39234;53.158;6.322;2022-07-21T06:41:14;18.80;99.90
53152;DHT22;39234;53.158;6.322;2022-07-21T06:43:40;18.60;99.90
53152;DHT22;39234;53.158;6.322;2022-07-21T06:46:07;18.80;99.90
53152;DHT22;39234;53.158;6.322;2022-07-21T06:48:35;18.60;99.90
53152;DHT22;39234;53.158;6.322;2022-07-21T06:51:00;18.80;99.90
53152;DHT22;39234;53.158;6.322;2022-07-21T06:53:26;19.00;99.90
53152;DHT22;39234;53.158;6.322;2022-07-21T06:55:54;18.60;99.90
53152;DHT22;39234;53.158;6.322;2022-07-21T06:58:22;19.20;99.90
53152;DHT22;39234;53.158;6.322;2022-07-21T07:00:50;18.90;99.90
53152;DHT22;39234;53.158;6.322;2022-07-21T07:03:18;19.10;99.90
53152;DHT22;39234;53.158;6.322;2022-07-21T07:05:45;17.40;99.90
53152;DHT22;39234;53.158;6.322;2022-07-21T07:08:12;19.20;99.90
53152;DHT22;39234;53.158;6.322;2022-07-21T07:10:42;21.30;99.90
53152;DHT22;39234;53.158;6.322;2022-07-21T07:13:09;19.50;99.90
53152;DHT22;39234;53.158;6.322;2022-07-21T07:15:35;19.30;99.90
53152;DHT22;39234;53.158;6.322;2022-07-21T07:18:01;19.50;99.90
53152;DHT22;39234;53.158;6.322;2022-07-21T07:20:27;19.60;99.90
53152;DHT22;39234;53.158;6.322;2022-07-21T07:22:52;19.50;99.90
53152;DHT22;39234;53.158;6.322;2022-07-21T07:25:18;19.60;99.90
53152;DHT22;39234;53.158;6.322;2022-07-21T07:27:45;19.40;99.90
53152;DHT22;39234;53.158;6.322;2022-07-21T07:30:12;19.60;99.90
53152;DHT22;39234;53.158;6.322;2022-07-21T07:32:38;19.60;99.90
53152;DHT22;39234;53.158;6.322;2022-07-21T07:35:07;21.50;99.90
53152;DHT22;39234;53.158;6.322;2022-07-21T07:37:38;19.70;99.90
53152;DHT22;39234;53.158;6.322;2022-07-21T07:40:10;19.80;99.90
53152;DHT22;39234;53.158;6.322;2022-07-21T07:42:38;19.90;99.90
53152;DHT22;39234;53.158;6.322;2022-07-21T07:45:05;19.70;99.90
53152;DHT22;39234;53.158;6.322;2022-07-21T07:47:33;19.70;99.90
53152;DHT22;39234;53.158;6.322;2022-07-21T07:49:59;22.10;99.90
53152;DHT22;39234;53.158;6.322;2022-07-21T07:52:25;19.80;99.90
53152;DHT22;39234;53.158;6.322;2022-07-21T07:54:51;20.40;99.90
53152;DHT22;39234;53.158;6.322;2022-07-21T07:57:16;19.60;99.90
53152;DHT22;39234;53.158;6.322;2022-07-21T07:59:44;19.60;99.90
53152;DHT22;39234;53.158;6.322;2022-07-21T08:02:10;19.50;99.90
53152;DHT22;39234;53.158;6.322;2022-07-21T08:04:36;19.40;99.90
53152;DHT22;39234;53.158;6.322;2022-07-21T08:07:02;19.50;99.90
53152;DHT22;39234;53.158;6.322;2022-07-21T08:09:28;19.60;99.90
53152;DHT22;39234;53.158;6.322;2022-07-21T08:11:54;20.40;99.90
53152;DHT22;39234;53.158;6.322;2022-07-21T08:14:20;19.50;99.90
53152;DHT22;39234;53.158;6.322;2022-07-21T08:16:48;19.50;99.90
53152;DHT22;39234;53.158;6.322;2022-07-21T08:19:14;19.60;99.90
53152;DHT22;39234;53.158;6.322;2022-07-21T08:21:40;19.50;99.90
53152;DHT22;39234;53.158;6.322;2022-07-21T08:24:08;19.60;99.90
53152;DHT22;39234;53.158;6.322;2022-07-21T08:26:34;19.50;99.90
53152;DHT22;39234;53.158;6.322;2022-07-21T08:29:00;19.60;99.90
53152;DHT22;39234;53.158;6.322;2022-07-21T08:31:26;20.40;99.90
53152;DHT22;39234;53.158;6.322;2022-07-21T08:33:52;19.80;99.90
53152;DHT22;39234;53.158;6.322;2022-07-21T08:36:19;19.60;99.90
53152;DHT22;39234;53.158;6.322;2022-07-21T08:38:47;19.70;99.90
53152;DHT22;39234;53.158;6.322;2022-07-21T08:41:12;19.70;99.90
53152;DHT22;39234;53.158;6.322;2022-07-21T08:43:38;19.90;99.90
53152;DHT22;39234;53.158;6.322;2022-07-21T08:46:04;20.00;99.90
53152;DHT22;39234;53.158;6.322;2022-07-21T08:48:31;19.80;99.90
53152;DHT22;39234;53.158;6.322;2022-07-21T08:50:57;19.90;99.90
53152;DHT22;39234;53.158;6.322;2022-07-21T08:53:23;20.00;99.90
53152;DHT22;39234;53.158;6.322;2022-07-21T08:55:49;22.10;99.90
53152;DHT22;39234;53.158;6.322;2022-07-21T08:58:17;20.00;99.90
53152;DHT22;39234;53.158;6.322;2022-07-21T09:00:49;19.80;99.90
53152;DHT22;39234;53.158;6.322;2022-07-21T09:03:18;20.00;99.90
53152;DHT22;39234;53.158;6.322;2022-07-21T09:08:44;20.10;99.90
53152;DHT22;39234;53.158;6.322;2022-07-21T09:11:30;20.20;99.90
53152;DHT22;39234;53.158;6.322;2022-07-21T09:16:39;20.20;99.90
53152;DHT22;39234;53.158;6.322;2022-07-21T09:19:06;20.20;99.90
53152;DHT22;39234;53.158;6.322;2022-07-21T09:21:36;18.20;99.90
53152;DHT22;39234;53.158;6.322;2022-07-21T09:29:25;20.00;99.90
53152;DHT22;39234;53.158;6.322;2022-07-21T09:31:53;20.70;99.90
53152;DHT22;39234;53.158;6.322;2022-07-21T09:34:19;20.10;99.90
53152;DHT22;39234;53.158;6.322;2022-07-21T09:36:57;20.00;99.90
53152;DHT22;39234;53.158;6.322;2022-07-21T09:39:45;20.10;99.90
53152;DHT22;39234;53.158;6.322;2022-07-21T09:42:26;20.60;99.90
53152;DHT22;39234;53.158;6.322;2022-07-21T09:44:57;19.70;99.90
53152;DHT22;39234;53.158;6.322;2022-07-21T09:47:25;19.80;99.90
53152;DHT22;39234;53.158;6.322;2022-07-21T09:49:52;21.90;99.90
53152;DHT22;39234;53.158;6.322;2022-07-21T09:52:20;21.00;99.90
53152;DHT22;39234;53.158;6.322;2022-07-21T09:54:46;19.70;99.90
53152;DHT22;39234;53.158;6.322;2022-07-21T09:57:11;20.30;99.90
53152;DHT22;39234;53.158;6.322;2022-07-21T09:59:43;19.70;99.90
53152;DHT22;39234;53.158;6.322;2022-07-21T10:04:46;19.80;99.90
53152;DHT22;39234;53.158;6.322;2022-07-21T10:07:15;19.60;99.90
53152;DHT22;39234;53.158;6.322;2022-07-21T10:09:40;19.50;99.90
53152;DHT22;39234;53.158;6.322;2022-07-21T10:12:06;19.40;99.90
53152;DHT22;39234;53.158;6.322;2022-07-21T10:14:35;19.80;99.90
53152;DHT22;39234;53.158;6.322;2022-07-21T10:17:01;19.80;99.90
53152;DHT22;39234;53.158;6.322;2022-07-21T10:19:44;20.40;99.90
53152;DHT22;39234;53.158;6.322;2022-07-21T10:25:06;19.50;99.90
53152;DHT22;39234;53.158;6.322;2022-07-21T10:27:32;20.30;99.90
53152;DHT22;39234;53.158;6.322;2022-07-21T10:30:00;19.60;99.90
53152;DHT22;39234;53.158;6.322;2022-07-21T10:32:32;19.60;99.90
53152;DHT22;39234;53.158;6.322;2022-07-21T10:35:00;19.70;99.90
53152;DHT22;39234;53.158;6.322;2022-07-21T10:40:33;22.10;99.90
53152;DHT22;39234;53.158;6.322;2022-07-21T10:45:36;21.90;99.90
53152;DHT22;39234;53.158;6.322;2022-07-21T10:48:05;20.10;99.90
53152;DHT22;39234;53.158;6.322;2022-07-21T10:52:59;20.20;99.90
53152;DHT22;39234;53.158;6.322;2022-07-21T10:55:27;20.10;99.90
53152;DHT22;39234;53.158;6.322;2022-07-21T11:06:18;20.00;99.90
53152;DHT22;39234;53.158;6.322;2022-07-21T11:08:52;20.30;99.90
53152;DHT22;39234;53.158;6.322;2022-07-21T11:11:26;20.10;99.90
53152;DHT22;39234;53.158;6.322;2022-07-21T11:14:11;20.30;99.90
53152;DHT22;39234;53.158;6.322;2022-07-21T11:20:11;20.30;99.90
53152;DHT22;39234;53.158;6.322;2022-07-21T11:22:27;20.30;99.90
53152;DHT22;39234;53.158;6.322;2022-07-21T11:25:04;20.40;99.90
53152;DHT22;39234;53.158;6.322;2022-07-21T11:27:35;20.30;99.90
53152;DHT22;39234;53.158;6.322;2022-07-21T11:30:07;20.60;99.90
53152;DHT22;39234;53.158;6.322;2022-07-21T11:32:35;20.60;99.90
53152;DHT22;39234;53.158;6.322;2022-07-21T11:35:06;20.60;99.90
53152;DHT22;39234;53.158;6.322;2022-07-21T11:37:36;20.60;99.90
53152;DHT22;39234;53.158;6.322;2022-07-21T11:40:04;20.40;99.90
53152;DHT22;39234;53.158;6.322;2022-07-21T11:42:30;20.60;99.90
53152;DHT22;39234;53.158;6.322;2022-07-21T11:44:58;20.50;99.90
53152;DHT22;39234;53.158;6.322;2022-07-21T11:47:24;20.70;99.90
53152;DHT22;39234;53.158;6.322;2022-07-21T11:49:57;20.80;99.90
53152;DHT22;39234;53.158;6.322;2022-07-21T11:52:26;22.70;99.90
53152;DHT22;39234;53.158;6.322;2022-07-21T11:54:54;20.90;99.90
53152;DHT22;39234;53.158;6.322;2022-07-21T11:57:22;21.00;99.90
53152;DHT22;39234;53.158;6.322;2022-07-21T11:59:49;23.20;99.90
53152;DHT22;39234;53.158;6.322;2022-07-21T12:02:19;21.00;99.90
53152;DHT22;39234;53.158;6.322;2022-07-21T12:04:54;21.30;99.90
53152;DHT22;39234;53.158;6.322;2022-07-21T12:07:35;21.40;99.90
53152;DHT22;39234;53.158;6.322;2022-07-21T12:10:10;21.40;99.90
53152;DHT22;39234;53.158;6.322;2022-07-21T12:12:44;21.40;99.90
53152;DHT22;39234;53.158;6.322;2022-07-21T12:15:27;21.40;99.90
53152;DHT22;39234;53.158;6.322;2022-07-21T12:17:55;21.90;99.90
53152;DHT22;39234;53.158;6.322;2022-07-21T12:20:36;21.70;99.90
53152;DHT22;39234;53.158;6.322;2022-07-21T12:23:26;21.80;99.90
53152;DHT22;39234;53.158;6.322;2022-07-21T12:25:53;21.70;99.90
53152;DHT22;39234;53.158;6.322;2022-07-21T12:28:19;21.70;99.90
53152;DHT22;39234;53.158;6.322;2022-07-21T12:30:49;22.30;99.90
53152;DHT22;39234;53.158;6.322;2022-07-21T12:33:26;22.00;99.90
53152;DHT22;39234;53.158;6.322;2022-07-21T12:36:05;21.80;99.90
53152;DHT22;39234;53.158;6.322;2022-07-21T12:38:41;22.00;99.90
53152;DHT22;39234;53.158;6.322;2022-07-21T12:41:10;22.00;99.90
53152;DHT22;39234;53.158;6.322;2022-07-21T12:43:36;22.20;99.90
53152;DHT22;39234;53.158;6.322;2022-07-21T12:48:35;21.80;99.90
53152;DHT22;39234;53.158;6.322;2022-07-21T12:53:34;21.50;99.90
53152;DHT22;39234;53.158;6.322;2022-07-21T12:56:02;21.30;99.90
53152;DHT22;39234;53.158;6.322;2022-07-21T12:58:28;21.30;99.90
53152;DHT22;39234;53.158;6.322;2022-07-21T13:00:54;21.10;99.90
53152;DHT22;39234;53.158;6.322;2022-07-21T13:03:22;21.00;99.90
53152;DHT22;39234;53.158;6.322;2022-07-21T13:05:47;21.10;99.90
53152;DHT22;39234;53.158;6.322;2022-07-21T13:08:13;20.90;99.90
53152;DHT22;39234;53.158;6.322;2022-07-21T13:10:41;22.30;99.90
53152;DHT22;39234;53.158;6.322;2022-07-21T13:13:08;21.00;99.90
53152;DHT22;39234;53.158;6.322;2022-07-21T13:15:34;21.60;99.90
53152;DHT22;39234;53.158;6.322;2022-07-21T13:18:00;21.00;99.90
53152;DHT22;39234;53.158;6.322;2022-07-21T13:20:25;21.10;99.90
53152;DHT22;39234;53.158;6.322;2022-07-21T13:22:51;21.20;99.90
53152;DHT22;39234;53.158;6.322;2022-07-21T13:25:17;22.70;99.90
53152;DHT22;39234;53.158;6.322;2022-07-21T13:27:42;23.10;99.90
53152;DHT22;39234;53.158;6.322;2022-07-21T13:30:09;21.30;99.90
53152;DHT22;39234;53.158;6.322;2022-07-21T13:32:35;21.20;99.90
53152;DHT22;39234;53.158;6.322;2022-07-21T13:35:02;21.10;99.90
53152;DHT22;39234;53.158;6.322;2022-07-21T13:37:30;21.10;99.90
53152;DHT22;39234;53.158;6.322;2022-07-21T13:39:57;21.00;99.90
53152;DHT22;39234;53.158;6.322;2022-07-21T13:42:23;21.00;99.90
53152;DHT22;39234;53.158;6.322;2022-07-21T13:44:49;21.10;99.90
53152;DHT22;39234;53.158;6.322;2022-07-21T13:47:14;20.90;99.90
53152;DHT22;39234;53.158;6.322;2022-07-21T13:49:40;20.90;99.90
53152;DHT22;39234;53.158;6.322;2022-07-21T13:52:07;20.90;99.90
53152;DHT22;39234;53.158;6.322;2022-07-21T13:54:33;20.20;99.90
53152;DHT22;39234;53.158;6.322;2022-07-21T13:56:58;20.90;99.90
53152;DHT22;39234;53.158;6.322;2022-07-21T13:59:27;20.90;99.90
53152;DHT22;39234;53.158;6.322;2022-07-21T14:01:53;20.90;99.90
53152;DHT22;39234;53.158;6.322;2022-07-21T14:04:19;20.80;99.90
53152;DHT22;39234;53.158;6.322;2022-07-21T14:06:45;22.00;99.90
53152;DHT22;39234;53.158;6.322;2022-07-21T14:09:18;20.70;99.90
53152;DHT22;39234;53.158;6.322;2022-07-21T14:11:44;20.60;99.90
53152;DHT22;39234;53.158;6.322;2022-07-21T14:14:10;20.60;99.90
53152;DHT22;39234;53.158;6.322;2022-07-21T14:16:43;20.70;99.90
53152;DHT22;39234;53.158;6.322;2022-07-21T14:19:08;21.60;99.90
53152;DHT22;39234;53.158;6.322;2022-07-21T14:21:34;20.60;99.90
53152;DHT22;39234;53.158;6.322;2022-07-21T14:24:00;22.40;99.90
53152;DHT22;39234;53.158;6.322;2022-07-21T14:27:06;20.60;99.90
53152;DHT22;39234;53.158;6.322;2022-07-21T14:29:32;20.60;99.90
53152;DHT22;39234;53.158;6.322;2022-07-21T14:31:58;20.60;99.90
53152;DHT22;39234;53.158;6.322;2022-07-21T14:34:24;20.60;99.90
53152;DHT22;39234;53.158;6.322;2022-07-21T14:36:49;22.70;99.90
53152;DHT22;39234;53.158;6.322;2022-07-21T14:39:17;20.70;99.90
53152;DHT22;39234;53.158;6.322;2022-07-21T14:41:45;20.50;99.90
53152;DHT22;39234;53.158;6.322;2022-07-21T14:44:12;20.80;99.90
53152;DHT22;39234;53.158;6.322;2022-07-21T14:46:38;20.40;99.90
53152;DHT22;39234;53.158;6.322;2022-07-21T14:49:05;22.30;99.90
53152;DHT22;39234;53.158;6.322;2022-07-21T14:51:31;20.60;99.90
53152;DHT22;39234;53.158;6.322;2022-07-21T14:53:57;20.70;99.90
53152;DHT22;39234;53.158;6.322;2022-07-21T14:56:22;20.60;99.90
53152;DHT22;39234;53.158;6.322;2022-07-21T14:58:48;20.80;99.90
53152;DHT22;39234;53.158;6.322;2022-07-21T15:01:14;20.70;99.90
53152;DHT22;39234;53.158;6.322;2022-07-21T15:03:40;20.90;99.90
53152;DHT22;39234;53.158;6.322;2022-07-21T15:06:05;22.60;99.90
53152;DHT22;39234;53.158;6.322;2022-07-21T15:08:31;21.00;99.90
53152;DHT22;39234;53.158;6.322;2022-07-21T15:10:57;21.30;99.90
53152;DHT22;39234;53.158;6.322;2022-07-21T15:13:25;21.00;99.90
53152;DHT22;39234;53.158;6.322;2022-07-21T15:15:55;23.00;99.90
53152;DHT22;39234;53.158;6.322;2022-07-21T15:18:21;20.80;99.90
53152;DHT22;39234;53.158;6.322;2022-07-21T15:20:47;20.70;99.90
53152;DHT22;39234;53.158;6.322;2022-07-21T15:23:14;20.90;99.90
53152;DHT22;39234;53.158;6.322;2022-07-21T15:25:40;20.60;99.90
53152;DHT22;39234;53.158;6.322;2022-07-21T15:28:06;20.30;99.90
53152;DHT22;39234;53.158;6.322;2022-07-21T15:30:32;20.30;99.90
53152;DHT22;39234;53.158;6.322;2022-07-21T15:32:58;20.40;99.90
53152;DHT22;39234;53.158;6.322;2022-07-21T15:35:24;20.10;99.90
53152;DHT22;39234;53.158;6.322;2022-07-21T15:37:51;20.30;99.90
53152;DHT22;39234;53.158;6.322;2022-07-21T15:40:19;20.40;99.90
53152;DHT22;39234;53.158;6.322;2022-07-21T15:42:45;20.70;99.90
53152;DHT22;39234;53.158;6.322;2022-07-21T15:45:11;20.70;99.90
53152;DHT22;39234;53.158;6.322;2022-07-21T15:47:39;20.60;99.90
53152;DHT22;39234;53.158;6.322;2022-07-21T15:50:06;22.60;99.90
53152;DHT22;39234;53.158;6.322;2022-07-21T15:52:34;20.30;99.90
53152;DHT22;39234;53.158;6.322;2022-07-21T15:55:06;20.30;99.90
53152;DHT22;39234;53.158;6.322;2022-07-21T15:57:32;20.20;99.90
53152;DHT22;39234;53.158;6.322;2022-07-21T15:59:58;19.90;99.90
53152;DHT22;39234;53.158;6.322;2022-07-21T16:02:26;19.60;99.90
53152;DHT22;39234;53.158;6.322;2022-07-21T16:04:52;19.80;99.90
53152;DHT22;39234;53.158;6.322;2022-07-21T16:07:18;19.80;99.90
53152;DHT22;39234;53.158;6.322;2022-07-21T16:09:46;20.50;99.90
53152;DHT22;39234;53.158;6.322;2022-07-21T16:12:12;19.30;99.90
53152;DHT22;39234;53.158;6.322;2022-07-21T16:14:39;19.30;99.90
53152;DHT22;39234;53.158;6.322;2022-07-21T16:17:05;21.20;99.90
53152;DHT22;39234;53.158;6.322;2022-07-21T16:19:32;21.00;99.90
53152;DHT22;39234;53.158;6.322;2022-07-21T16:21:59;19.10;99.90
53152;DHT22;39234;53.158;6.322;2022-07-21T16:24:25;19.90;99.90
53152;DHT22;39234;53.158;6.322;2022-07-21T16:26:51;18.90;99.90
53152;DHT22;39234;53.158;6.322;2022-07-21T16:29:17;21.20;99.90
53152;DHT22;39234;53.158;6.322;2022-07-21T16:31:44;19.80;99.90
53152;DHT22;39234;53.158;6.322;2022-07-21T16:34:10;18.80;99.90
53152;DHT22;39234;53.158;6.322;2022-07-21T16:36:38;18.80;99.90
53152;DHT22;39234;53.158;6.322;2022-07-21T16:39:04;18.60;99.90
53152;DHT22;39234;53.158;6.322;2022-07-21T16:41:30;19.30;99.90
53152;DHT22;39234;53.158;6.322;2022-07-21T16:43:57;19.40;99.90
53152;DHT22;39234;53.158;6.322;2022-07-21T16:46:27;19.30;99.90
53152;DHT22;39234;53.158;6.322;2022-07-21T16:48:52;19.50;99.90